sensor_id;sensor_type;location;lat;lon;timestamp;P1;durP1;ratioP1;P2;durP2;ratioP2
65230;SDS011;51813;40.666;16.602;2024-02-04T00:00:47;5.43;;;3.30;;
65230;SDS011;51813;40.666;16.602;2024-02-04T00:03:13;5.85;;;3.45;;
65230;SDS011;51813;40.666;16.602;2024-02-04T00:05:39;5.57;;;3.60;;
65230;SDS011;51813;40.666;16.602;2024-02-04T00:08:04;4.88;;;3.03;;
65230;SDS011;51813;40.666;16.602;2024-02-04T00:10:30;5.10;;;3.45;;
65230;SDS011;51813;40.666;16.602;2024-02-04T00:12:56;6.57;;;3.30;;
65230;SDS011;51813;40.666;16.602;2024-02-04T00:15:22;4.93;;;3.30;;
65230;SDS011;51813;40.666;16.602;2024-02-04T00:17:47;4.95;;;3.45;;
65230;SDS011;51813;40.666;16.602;2024-02-04T00:20:13;5.05;;;3.40;;
65230;SDS011;51813;40.666;16.602;2024-02-04T00:22:39;5.82;;;3.65;;
65230;SDS011;51813;40.666;16.602;2024-02-04T00:25:05;6.25;;;3.50;;
65230;SDS011;51813;40.666;16.602;2024-02-04T00:27:31;5.80;;;3.50;;
65230;SDS011;51813;40.666;16.602;2024-02-04T00:29:57;4.65;;;3.17;;
65230;SDS011;51813;40.666;16.602;2024-02-04T00:32:24;4.68;;;3.10;;
65230;SDS011;51813;40.666;16.602;2024-02-04T00:34:50;5.55;;;3.50;;
65230;SDS011;51813;40.666;16.602;2024-02-04T00:37:16;5.82;;;3.60;;
65230;SDS011;51813;40.666;16.602;2024-02-04T00:39:41;7.10;;;3.80;;
65230;SDS011;51813;40.666;16.602;2024-02-04T00:42:07;5.70;;;3.20;;
65230;SDS011;51813;40.666;16.602;2024-02-04T00:44:33;4.28;;;3.05;;
65230;SDS011;51813;40.666;16.602;2024-02-04T00:46:58;6.05;;;3.72;;
65230;SDS011;51813;40.666;16.602;2024-02-04T00:49:24;5.70;;;3.55;;
65230;SDS011;51813;40.666;16.602;2024-02-04T00:51:51;5.30;;;3.38;;
65230;SDS011;51813;40.666;16.602;2024-02-04T00:54:17;5.15;;;3.35;;
65230;SDS011;51813;40.666;16.602;2024-02-04T00:56:43;4.97;;;3.30;;
65230;SDS011;51813;40.666;16.602;2024-02-04T00:59:08;5.18;;;3.40;;
65230;SDS011;51813;40.666;16.602;2024-02-04T01:01:34;4.82;;;3.00;;
65230;SDS011;51813;40.666;16.602;2024-02-04T01:04:00;4.68;;;3.03;;
65230;SDS011;51813;40.666;16.602;2024-02-04T01:06:26;4.10;;;3.00;;
65230;SDS011;51813;40.666;16.602;2024-02-04T01:08:53;5.07;;;3.15;;
65230;SDS011;51813;40.666;16.602;2024-02-04T01:11:18;4.03;;;2.65;;
65230;SDS011;51813;40.666;16.602;2024-02-04T01:13:44;4.72;;;3.35;;
65230;SDS011;51813;40.666;16.602;2024-02-04T01:16:10;5.78;;;2.95;;
65230;SDS011;51813;40.666;16.602;2024-02-04T01:18:35;5.15;;;3.10;;
65230;SDS011;51813;40.666;16.602;2024-02-04T01:21:01;4.20;;;2.70;;
65230;SDS011;51813;40.666;16.602;2024-02-04T01:23:27;4.45;;;2.97;;
65230;SDS011;51813;40.666;16.602;2024-02-04T01:25:52;4.35;;;2.60;;
65230;SDS011;51813;40.666;16.602;2024-02-04T01:28:18;4.50;;;2.92;;
65230;SDS011;51813;40.666;16.602;2024-02-04T01:30:44;4.45;;;2.72;;
65230;SDS011;51813;40.666;16.602;2024-02-04T01:33:10;4.30;;;2.88;;
65230;SDS011;51813;40.666;16.602;2024-02-04T01:35:35;3.88;;;2.40;;
65230;SDS011;51813;40.666;16.602;2024-02-04T01:38:01;4.28;;;2.65;;
65230;SDS011;51813;40.666;16.602;2024-02-04T01:40:27;3.55;;;2.40;;
65230;SDS011;51813;40.666;16.602;2024-02-04T01:42:52;4.50;;;2.65;;
65230;SDS011;51813;40.666;16.602;2024-02-04T01:45:18;4.10;;;2.42;;
65230;SDS011;51813;40.666;16.602;2024-02-04T01:47:44;5.15;;;2.67;;
65230;SDS011;51813;40.666;16.602;2024-02-04T01:50:10;4.07;;;2.58;;
65230;SDS011;51813;40.666;16.602;2024-02-04T01:52:36;5.05;;;3.08;;
65230;SDS011;51813;40.666;16.602;2024-02-04T01:55:04;4.43;;;2.42;;
65230;SDS011;51813;40.666;16.602;2024-02-04T01:57:31;5.10;;;2.70;;
65230;SDS011;51813;40.666;16.602;2024-02-04T01:59:59;4.18;;;2.45;;
65230;SDS011;51813;40.666;16.602;2024-02-04T02:02:25;3.95;;;2.38;;
65230;SDS011;51813;40.666;16.602;2024-02-04T02:04:51;4.00;;;2.50;;
65230;SDS011;51813;40.666;16.602;2024-02-04T02:07:17;4.50;;;2.60;;
65230;SDS011;51813;40.666;16.602;2024-02-04T02:09:45;3.67;;;2.60;;
65230;SDS011;51813;40.666;16.602;2024-02-04T02:12:15;3.22;;;2.30;;
65230;SDS011;51813;40.666;16.602;2024-02-04T02:14:46;3.83;;;2.38;;
65230;SDS011;51813;40.666;16.602;2024-02-04T02:17:20;4.40;;;2.80;;
65230;SDS011;51813;40.666;16.602;2024-02-04T02:19:59;4.47;;;2.50;;
65230;SDS011;51813;40.666;16.602;2024-02-04T02:22:48;4.03;;;2.40;;
65230;SDS011;51813;40.666;16.602;2024-02-04T02:25:15;6.03;;;3.03;;
65230;SDS011;51813;40.666;16.602;2024-02-04T02:27:50;4.03;;;2.50;;
65230;SDS011;51813;40.666;16.602;2024-02-04T02:30:16;3.40;;;2.28;;
65230;SDS011;51813;40.666;16.602;2024-02-04T02:32:45;3.85;;;2.78;;
65230;SDS011;51813;40.666;16.602;2024-02-04T02:35:16;3.35;;;2.10;;
65230;SDS011;51813;40.666;16.602;2024-02-04T02:40:30;4.60;;;2.55;;
65230;SDS011;51813;40.666;16.602;2024-02-04T02:43:00;3.78;;;2.60;;
65230;SDS011;51813;40.666;16.602;2024-02-04T02:45:28;3.90;;;2.67;;
65230;SDS011;51813;40.666;16.602;2024-02-04T02:47:54;3.33;;;2.15;;
65230;SDS011;51813;40.666;16.602;2024-02-04T02:50:20;3.53;;;2.28;;
65230;SDS011;51813;40.666;16.602;2024-02-04T02:52:46;5.03;;;2.60;;
65230;SDS011;51813;40.666;16.602;2024-02-04T02:55:12;3.47;;;2.22;;
65230;SDS011;51813;40.666;16.602;2024-02-04T02:57:38;3.38;;;2.25;;
65230;SDS011;51813;40.666;16.602;2024-02-04T03:00:04;3.53;;;2.40;;
65230;SDS011;51813;40.666;16.602;2024-02-04T03:02:31;4.95;;;2.30;;
65230;SDS011;51813;40.666;16.602;2024-02-04T03:04:57;5.05;;;2.50;;
65230;SDS011;51813;40.666;16.602;2024-02-04T03:07:23;3.58;;;2.35;;
65230;SDS011;51813;40.666;16.602;2024-02-04T03:09:48;3.60;;;2.40;;
65230;SDS011;51813;40.666;16.602;2024-02-04T03:12:14;3.90;;;2.25;;
65230;SDS011;51813;40.666;16.602;2024-02-04T03:14:40;4.05;;;2.58;;
65230;SDS011;51813;40.666;16.602;2024-02-04T03:17:05;4.03;;;2.22;;
65230;SDS011;51813;40.666;16.602;2024-02-04T03:19:31;3.53;;;2.22;;
65230;SDS011;51813;40.666;16.602;2024-02-04T03:21:57;3.88;;;2.10;;
65230;SDS011;51813;40.666;16.602;2024-02-04T03:24:22;3.60;;;2.22;;
65230;SDS011;51813;40.666;16.602;2024-02-04T03:26:48;3.88;;;2.30;;
65230;SDS011;51813;40.666;16.602;2024-02-04T03:29:13;3.78;;;2.50;;
65230;SDS011;51813;40.666;16.602;2024-02-04T03:31:39;3.42;;;1.98;;
65230;SDS011;51813;40.666;16.602;2024-02-04T03:34:05;3.95;;;2.17;;
65230;SDS011;51813;40.666;16.602;2024-02-04T03:36:30;3.80;;;2.15;;
65230;SDS011;51813;40.666;16.602;2024-02-04T03:38:57;4.35;;;2.20;;
65230;SDS011;51813;40.666;16.602;2024-02-04T03:41:22;5.00;;;2.30;;
65230;SDS011;51813;40.666;16.602;2024-02-04T03:43:48;4.28;;;2.53;;
65230;SDS011;51813;40.666;16.602;2024-02-04T03:46:14;5.35;;;2.40;;
65230;SDS011;51813;40.666;16.602;2024-02-04T03:48:40;3.90;;;2.30;;
65230;SDS011;51813;40.666;16.602;2024-02-04T03:51:06;3.53;;;2.35;;
65230;SDS011;51813;40.666;16.602;2024-02-04T03:53:33;3.72;;;2.20;;
65230;SDS011;51813;40.666;16.602;2024-02-04T03:55:58;3.65;;;2.38;;
65230;SDS011;51813;40.666;16.602;2024-02-04T03:58:24;4.38;;;2.35;;
65230;SDS011;51813;40.666;16.602;2024-02-04T04:00:54;3.92;;;2.40;;
65230;SDS011;51813;40.666;16.602;2024-02-04T04:03:21;3.75;;;2.35;;
65230;SDS011;51813;40.666;16.602;2024-02-04T04:05:47;4.22;;;2.47;;
65230;SDS011;51813;40.666;16.602;2024-02-04T04:08:13;5.43;;;2.45;;
65230;SDS011;51813;40.666;16.602;2024-02-04T04:10:38;3.75;;;2.25;;
65230;SDS011;51813;40.666;16.602;2024-02-04T04:13:04;3.72;;;2.55;;
65230;SDS011;51813;40.666;16.602;2024-02-04T04:15:30;3.95;;;2.30;;
65230;SDS011;51813;40.666;16.602;2024-02-04T04:17:55;3.88;;;2.40;;
65230;SDS011;51813;40.666;16.602;2024-02-04T04:20:21;3.22;;;2.30;;
65230;SDS011;51813;40.666;16.602;2024-02-04T04:22:48;4.15;;;2.30;;
65230;SDS011;51813;40.666;16.602;2024-02-04T04:25:14;4.38;;;2.42;;
65230;SDS011;51813;40.666;16.602;2024-02-04T04:27:40;3.72;;;2.30;;
65230;SDS011;51813;40.666;16.602;2024-02-04T04:30:05;3.78;;;2.03;;
65230;SDS011;51813;40.666;16.602;2024-02-04T04:32:33;3.85;;;2.17;;
65230;SDS011;51813;40.666;16.602;2024-02-04T04:34:59;3.50;;;2.28;;
65230;SDS011;51813;40.666;16.602;2024-02-04T04:37:25;4.07;;;2.40;;
65230;SDS011;51813;40.666;16.602;2024-02-04T04:39:50;3.55;;;2.13;;
65230;SDS011;51813;40.666;16.602;2024-02-04T04:42:16;4.57;;;2.45;;
65230;SDS011;51813;40.666;16.602;2024-02-04T04:44:41;4.10;;;2.40;;
65230;SDS011;51813;40.666;16.602;2024-02-04T04:47:07;3.67;;;2.00;;
65230;SDS011;51813;40.666;16.602;2024-02-04T04:49:33;4.18;;;2.00;;
65230;SDS011;51813;40.666;16.602;2024-02-04T04:51:58;3.53;;;2.10;;
65230;SDS011;51813;40.666;16.602;2024-02-04T04:54:24;3.65;;;2.15;;
65230;SDS011;51813;40.666;16.602;2024-02-04T04:56:50;3.05;;;2.05;;
65230;SDS011;51813;40.666;16.602;2024-02-04T04:59:16;3.55;;;2.25;;
65230;SDS011;51813;40.666;16.602;2024-02-04T05:01:45;3.35;;;2.25;;
65230;SDS011;51813;40.666;16.602;2024-02-04T05:04:16;3.97;;;2.40;;
65230;SDS011;51813;40.666;16.602;2024-02-04T05:06:48;4.00;;;2.13;;
65230;SDS011;51813;40.666;16.602;2024-02-04T05:09:14;4.57;;;2.20;;
65230;SDS011;51813;40.666;16.602;2024-02-04T05:11:39;3.75;;;2.17;;
65230;SDS011;51813;40.666;16.602;2024-02-04T05:14:05;3.42;;;2.10;;
65230;SDS011;51813;40.666;16.602;2024-02-04T05:16:31;3.28;;;1.95;;
65230;SDS011;51813;40.666;16.602;2024-02-04T05:18:56;3.28;;;2.22;;
65230;SDS011;51813;40.666;16.602;2024-02-04T05:21:22;3.35;;;2.10;;
65230;SDS011;51813;40.666;16.602;2024-02-04T05:23:47;3.80;;;2.20;;
65230;SDS011;51813;40.666;16.602;2024-02-04T05:26:13;3.78;;;2.38;;
65230;SDS011;51813;40.666;16.602;2024-02-04T05:28:39;4.35;;;2.30;;
65230;SDS011;51813;40.666;16.602;2024-02-04T05:31:05;3.75;;;2.17;;
65230;SDS011;51813;40.666;16.602;2024-02-04T05:33:30;2.83;;;1.98;;
65230;SDS011;51813;40.666;16.602;2024-02-04T05:35:56;3.47;;;2.20;;
65230;SDS011;51813;40.666;16.602;2024-02-04T05:38:21;4.05;;;2.30;;
65230;SDS011;51813;40.666;16.602;2024-02-04T05:40:47;4.03;;;2.10;;
65230;SDS011;51813;40.666;16.602;2024-02-04T05:43:13;3.40;;;2.30;;
65230;SDS011;51813;40.666;16.602;2024-02-04T05:45:39;3.13;;;2.00;;
65230;SDS011;51813;40.666;16.602;2024-02-04T05:48:08;3.65;;;2.08;;
65230;SDS011;51813;40.666;16.602;2024-02-04T05:50:34;4.63;;;2.75;;
65230;SDS011;51813;40.666;16.602;2024-02-04T05:53:00;3.47;;;2.45;;
65230;SDS011;51813;40.666;16.602;2024-02-04T05:55:25;3.60;;;2.38;;
65230;SDS011;51813;40.666;16.602;2024-02-04T05:57:51;3.90;;;2.53;;
65230;SDS011;51813;40.666;16.602;2024-02-04T06:00:17;4.00;;;2.40;;
65230;SDS011;51813;40.666;16.602;2024-02-04T06:02:43;3.40;;;2.15;;
65230;SDS011;51813;40.666;16.602;2024-02-04T06:05:09;3.80;;;2.35;;
65230;SDS011;51813;40.666;16.602;2024-02-04T06:07:35;3.75;;;2.33;;
65230;SDS011;51813;40.666;16.602;2024-02-04T06:10:00;3.35;;;2.15;;
65230;SDS011;51813;40.666;16.602;2024-02-04T06:12:28;3.50;;;2.17;;
65230;SDS011;51813;40.666;16.602;2024-02-04T06:14:54;3.45;;;2.15;;
65230;SDS011;51813;40.666;16.602;2024-02-04T06:17:20;3.72;;;2.40;;
65230;SDS011;51813;40.666;16.602;2024-02-04T06:19:46;3.72;;;2.35;;
65230;SDS011;51813;40.666;16.602;2024-02-04T06:22:11;3.42;;;2.20;;
65230;SDS011;51813;40.666;16.602;2024-02-04T06:24:37;2.97;;;2.08;;
65230;SDS011;51813;40.666;16.602;2024-02-04T06:27:05;4.00;;;2.53;;
65230;SDS011;51813;40.666;16.602;2024-02-04T06:29:36;4.35;;;2.55;;
65230;SDS011;51813;40.666;16.602;2024-02-04T06:32:02;3.60;;;2.33;;
65230;SDS011;51813;40.666;16.602;2024-02-04T06:34:28;3.47;;;2.28;;
65230;SDS011;51813;40.666;16.602;2024-02-04T06:36:54;4.18;;;2.47;;
65230;SDS011;51813;40.666;16.602;2024-02-04T06:39:20;4.47;;;2.25;;
65230;SDS011;51813;40.666;16.602;2024-02-04T06:41:45;3.95;;;2.35;;
65230;SDS011;51813;40.666;16.602;2024-02-04T06:44:11;4.13;;;2.40;;
65230;SDS011;51813;40.666;16.602;2024-02-04T06:46:37;3.22;;;2.15;;
65230;SDS011;51813;40.666;16.602;2024-02-04T06:49:02;4.45;;;2.35;;
65230;SDS011;51813;40.666;16.602;2024-02-04T06:51:28;4.30;;;2.78;;
65230;SDS011;51813;40.666;16.602;2024-02-04T06:53:54;3.40;;;2.50;;
65230;SDS011;51813;40.666;16.602;2024-02-04T06:56:19;4.05;;;2.60;;
65230;SDS011;51813;40.666;16.602;2024-02-04T06:58:45;3.78;;;2.40;;
65230;SDS011;51813;40.666;16.602;2024-02-04T07:01:11;3.80;;;2.40;;
65230;SDS011;51813;40.666;16.602;2024-02-04T07:03:37;3.63;;;2.60;;
65230;SDS011;51813;40.666;16.602;2024-02-04T07:06:03;4.13;;;2.45;;
65230;SDS011;51813;40.666;16.602;2024-02-04T07:08:29;4.90;;;2.58;;
65230;SDS011;51813;40.666;16.602;2024-02-04T07:10:55;3.65;;;2.22;;
65230;SDS011;51813;40.666;16.602;2024-02-04T07:13:21;4.18;;;2.38;;
65230;SDS011;51813;40.666;16.602;2024-02-04T07:15:47;3.40;;;2.35;;
65230;SDS011;51813;40.666;16.602;2024-02-04T07:18:12;4.30;;;2.38;;
65230;SDS011;51813;40.666;16.602;2024-02-04T07:20:38;4.40;;;2.60;;
65230;SDS011;51813;40.666;16.602;2024-02-04T07:23:04;5.35;;;2.80;;
65230;SDS011;51813;40.666;16.602;2024-02-04T07:25:30;4.88;;;3.08;;
65230;SDS011;51813;40.666;16.602;2024-02-04T07:27:57;5.13;;;2.80;;
65230;SDS011;51813;40.666;16.602;2024-02-04T07:30:23;4.07;;;2.60;;
65230;SDS011;51813;40.666;16.602;2024-02-04T07:32:49;4.00;;;2.53;;
65230;SDS011;51813;40.666;16.602;2024-02-04T07:35:15;3.65;;;2.45;;
65230;SDS011;51813;40.666;16.602;2024-02-04T07:37:40;4.45;;;2.85;;
65230;SDS011;51813;40.666;16.602;2024-02-04T07:40:06;4.07;;;2.55;;
65230;SDS011;51813;40.666;16.602;2024-02-04T07:42:32;4.55;;;2.80;;
65230;SDS011;51813;40.666;16.602;2024-02-04T07:44:58;4.20;;;2.55;;
65230;SDS011;51813;40.666;16.602;2024-02-04T07:47:24;4.22;;;2.85;;
65230;SDS011;51813;40.666;16.602;2024-02-04T07:49:50;4.25;;;2.67;;
65230;SDS011;51813;40.666;16.602;2024-02-04T07:52:16;3.95;;;2.58;;
65230;SDS011;51813;40.666;16.602;2024-02-04T07:54:42;4.22;;;3.05;;
65230;SDS011;51813;40.666;16.602;2024-02-04T07:57:12;4.22;;;2.88;;
65230;SDS011;51813;40.666;16.602;2024-02-04T07:59:37;4.45;;;2.60;;
65230;SDS011;51813;40.666;16.602;2024-02-04T08:02:03;4.90;;;2.67;;
65230;SDS011;51813;40.666;16.602;2024-02-04T08:04:29;4.57;;;2.95;;
65230;SDS011;51813;40.666;16.602;2024-02-04T08:06:55;3.95;;;2.67;;
65230;SDS011;51813;40.666;16.602;2024-02-04T08:09:21;4.30;;;2.80;;
65230;SDS011;51813;40.666;16.602;2024-02-04T08:11:46;4.95;;;3.10;;
65230;SDS011;51813;40.666;16.602;2024-02-04T08:14:12;3.97;;;2.70;;
65230;SDS011;51813;40.666;16.602;2024-02-04T08:16:39;4.70;;;2.75;;
65230;SDS011;51813;40.666;16.602;2024-02-04T08:19:05;4.63;;;2.70;;
65230;SDS011;51813;40.666;16.602;2024-02-04T08:21:31;4.28;;;2.88;;
65230;SDS011;51813;40.666;16.602;2024-02-04T08:23:57;3.97;;;2.90;;
65230;SDS011;51813;40.666;16.602;2024-02-04T08:26:23;6.25;;;3.90;;
65230;SDS011;51813;40.666;16.602;2024-02-04T08:28:49;5.07;;;3.47;;
65230;SDS011;51813;40.666;16.602;2024-02-04T08:31:15;6.47;;;3.95;;
65230;SDS011;51813;40.666;16.602;2024-02-04T08:33:42;5.93;;;3.80;;
65230;SDS011;51813;40.666;16.602;2024-02-04T08:36:07;6.10;;;3.50;;
65230;SDS011;51813;40.666;16.602;2024-02-04T08:38:35;5.15;;;3.58;;
65230;SDS011;51813;40.666;16.602;2024-02-04T08:41:02;5.25;;;3.60;;
65230;SDS011;51813;40.666;16.602;2024-02-04T08:43:28;4.85;;;3.90;;
65230;SDS011;51813;40.666;16.602;2024-02-04T08:45:54;5.05;;;3.42;;
65230;SDS011;51813;40.666;16.602;2024-02-04T08:48:19;4.75;;;3.50;;
65230;SDS011;51813;40.666;16.602;2024-02-04T08:50:45;4.88;;;3.60;;
65230;SDS011;51813;40.666;16.602;2024-02-04T08:53:11;5.22;;;3.70;;
65230;SDS011;51813;40.666;16.602;2024-02-04T08:55:36;5.47;;;3.90;;
65230;SDS011;51813;40.666;16.602;2024-02-04T08:58:02;5.63;;;3.60;;
65230;SDS011;51813;40.666;16.602;2024-02-04T09:00:28;6.57;;;3.50;;
65230;SDS011;51813;40.666;16.602;2024-02-04T09:02:53;5.75;;;3.80;;
65230;SDS011;51813;40.666;16.602;2024-02-04T09:05:19;4.82;;;3.20;;
65230;SDS011;51813;40.666;16.602;2024-02-04T09:07:45;6.38;;;4.00;;
65230;SDS011;51813;40.666;16.602;2024-02-04T09:10:11;5.93;;;3.75;;
65230;SDS011;51813;40.666;16.602;2024-02-04T09:12:37;6.22;;;3.60;;
65230;SDS011;51813;40.666;16.602;2024-02-04T09:15:03;4.90;;;3.33;;
65230;SDS011;51813;40.666;16.602;2024-02-04T09:17:30;4.50;;;3.13;;
65230;SDS011;51813;40.666;16.602;2024-02-04T09:19:58;6.32;;;3.90;;
65230;SDS011;51813;40.666;16.602;2024-02-04T09:22:24;6.15;;;4.22;;
65230;SDS011;51813;40.666;16.602;2024-02-04T09:24:50;6.30;;;3.67;;
65230;SDS011;51813;40.666;16.602;2024-02-04T09:27:15;6.28;;;3.80;;
65230;SDS011;51813;40.666;16.602;2024-02-04T09:29:41;5.55;;;3.47;;
65230;SDS011;51813;40.666;16.602;2024-02-04T09:32:07;6.75;;;4.40;;
65230;SDS011;51813;40.666;16.602;2024-02-04T09:34:33;6.00;;;4.10;;
65230;SDS011;51813;40.666;16.602;2024-02-04T09:36:58;5.88;;;3.63;;
65230;SDS011;51813;40.666;16.602;2024-02-04T09:39:24;4.93;;;3.42;;
65230;SDS011;51813;40.666;16.602;2024-02-04T09:41:50;5.43;;;3.92;;
65230;SDS011;51813;40.666;16.602;2024-02-04T09:44:15;4.95;;;3.63;;
65230;SDS011;51813;40.666;16.602;2024-02-04T09:46:42;5.25;;;3.88;;
65230;SDS011;51813;40.666;16.602;2024-02-04T09:49:08;4.88;;;3.22;;
65230;SDS011;51813;40.666;16.602;2024-02-04T09:51:34;6.13;;;3.92;;
65230;SDS011;51813;40.666;16.602;2024-02-04T09:54:02;5.82;;;4.20;;
65230;SDS011;51813;40.666;16.602;2024-02-04T09:58:58;5.10;;;3.38;;
65230;SDS011;51813;40.666;16.602;2024-02-04T10:01:23;6.35;;;3.60;;
65230;SDS011;51813;40.666;16.602;2024-02-04T10:03:51;5.10;;;3.20;;
65230;SDS011;51813;40.666;16.602;2024-02-04T10:06:17;5.88;;;3.70;;
65230;SDS011;51813;40.666;16.602;2024-02-04T10:08:43;6.07;;;3.50;;
65230;SDS011;51813;40.666;16.602;2024-02-04T10:11:09;5.05;;;3.42;;
65230;SDS011;51813;40.666;16.602;2024-02-04T10:13:47;6.78;;;4.00;;
65230;SDS011;51813;40.666;16.602;2024-02-04T10:16:14;6.68;;;3.55;;
65230;SDS011;51813;40.666;16.602;2024-02-04T10:18:41;4.72;;;3.63;;
65230;SDS011;51813;40.666;16.602;2024-02-04T10:21:17;6.13;;;3.53;;
65230;SDS011;51813;40.666;16.602;2024-02-04T10:23:44;5.35;;;3.70;;
65230;SDS011;51813;40.666;16.602;2024-02-04T10:26:13;5.57;;;3.45;;
65230;SDS011;51813;40.666;16.602;2024-02-04T10:28:39;5.93;;;3.33;;
65230;SDS011;51813;40.666;16.602;2024-02-04T10:31:08;5.07;;;3.45;;
65230;SDS011;51813;40.666;16.602;2024-02-04T10:33:36;4.65;;;3.25;;
65230;SDS011;51813;40.666;16.602;2024-02-04T10:36:03;5.60;;;3.20;;
65230;SDS011;51813;40.666;16.602;2024-02-04T10:38:29;4.95;;;3.42;;
65230;SDS011;51813;40.666;16.602;2024-02-04T10:40:55;4.95;;;3.28;;
65230;SDS011;51813;40.666;16.602;2024-02-04T10:43:27;5.30;;;3.58;;
65230;SDS011;51813;40.666;16.602;2024-02-04T10:45:57;5.07;;;3.50;;
65230;SDS011;51813;40.666;16.602;2024-02-04T10:48:34;4.85;;;3.22;;
65230;SDS011;51813;40.666;16.602;2024-02-04T10:51:08;6.97;;;3.65;;
65230;SDS011;51813;40.666;16.602;2024-02-04T10:53:40;4.68;;;3.40;;
65230;SDS011;51813;40.666;16.602;2024-02-04T10:58:41;5.05;;;3.33;;
65230;SDS011;51813;40.666;16.602;2024-02-04T11:01:09;5.45;;;3.50;;
65230;SDS011;51813;40.666;16.602;2024-02-04T11:03:36;5.88;;;3.60;;
65230;SDS011;51813;40.666;16.602;2024-02-04T11:06:04;6.05;;;3.70;;
65230;SDS011;51813;40.666;16.602;2024-02-04T11:08:30;4.65;;;3.10;;
65230;SDS011;51813;40.666;16.602;2024-02-04T11:10:56;5.57;;;3.30;;
65230;SDS011;51813;40.666;16.602;2024-02-04T11:13:21;5.00;;;3.20;;
65230;SDS011;51813;40.666;16.602;2024-02-04T11:15:48;5.38;;;3.60;;
65230;SDS011;51813;40.666;16.602;2024-02-04T11:18:30;5.40;;;3.70;;
65230;SDS011;51813;40.666;16.602;2024-02-04T11:26:28;6.57;;;3.72;;
65230;SDS011;51813;40.666;16.602;2024-02-04T11:28:54;5.70;;;3.10;;
65230;SDS011;51813;40.666;16.602;2024-02-04T11:31:21;5.25;;;3.35;;
65230;SDS011;51813;40.666;16.602;2024-02-04T11:33:47;4.85;;;2.90;;
65230;SDS011;51813;40.666;16.602;2024-02-04T11:36:16;5.95;;;3.20;;
65230;SDS011;51813;40.666;16.602;2024-02-04T11:38:43;4.57;;;3.00;;
65230;SDS011;51813;40.666;16.602;2024-02-04T11:41:20;6.20;;;3.13;;
65230;SDS011;51813;40.666;16.602;2024-02-04T11:43:51;4.82;;;3.20;;
65230;SDS011;51813;40.666;16.602;2024-02-04T11:46:21;5.13;;;3.20;;
65230;SDS011;51813;40.666;16.602;2024-02-04T11:48:53;4.50;;;2.83;;
65230;SDS011;51813;40.666;16.602;2024-02-04T11:51:21;4.50;;;3.03;;
65230;SDS011;51813;40.666;16.602;2024-02-04T11:53:49;4.67;;;2.87;;
65230;SDS011;51813;40.666;16.602;2024-02-04T11:56:18;4.20;;;2.90;;
65230;SDS011;51813;40.666;16.602;2024-02-04T11:58:44;4.30;;;2.78;;
65230;SDS011;51813;40.666;16.602;2024-02-04T12:01:10;5.15;;;3.00;;
65230;SDS011;51813;40.666;16.602;2024-02-04T12:03:36;4.25;;;2.72;;
65230;SDS011;51813;40.666;16.602;2024-02-04T12:06:02;4.22;;;2.83;;
65230;SDS011;51813;40.666;16.602;2024-02-04T12:08:30;4.68;;;3.10;;
65230;SDS011;51813;40.666;16.602;2024-02-04T12:10:57;4.95;;;2.88;;
65230;SDS011;51813;40.666;16.602;2024-02-04T12:13:24;4.00;;;2.80;;
65230;SDS011;51813;40.666;16.602;2024-02-04T12:15:50;4.35;;;2.58;;
65230;SDS011;51813;40.666;16.602;2024-02-04T12:18:16;4.28;;;2.55;;
65230;SDS011;51813;40.666;16.602;2024-02-04T12:20:45;4.30;;;2.75;;
65230;SDS011;51813;40.666;16.602;2024-02-04T12:23:18;4.97;;;2.95;;
65230;SDS011;51813;40.666;16.602;2024-02-04T12:25:44;3.80;;;2.70;;
65230;SDS011;51813;40.666;16.602;2024-02-04T12:28:10;4.80;;;2.78;;
65230;SDS011;51813;40.666;16.602;2024-02-04T12:30:35;4.47;;;2.60;;
65230;SDS011;51813;40.666;16.602;2024-02-04T12:33:02;3.88;;;2.60;;
65230;SDS011;51813;40.666;16.602;2024-02-04T12:35:32;5.00;;;2.83;;
65230;SDS011;51813;40.666;16.602;2024-02-04T12:37:58;5.53;;;2.90;;
65230;SDS011;51813;40.666;16.602;2024-02-04T12:40:25;5.40;;;3.22;;
65230;SDS011;51813;40.666;16.602;2024-02-04T12:42:53;5.40;;;2.88;;
65230;SDS011;51813;40.666;16.602;2024-02-04T12:45:19;4.75;;;2.50;;
65230;SDS011;51813;40.666;16.602;2024-02-04T12:47:48;4.15;;;2.50;;
65230;SDS011;51813;40.666;16.602;2024-02-04T12:50:18;5.10;;;2.83;;
65230;SDS011;51813;40.666;16.602;2024-02-04T12:52:49;4.68;;;2.65;;
65230;SDS011;51813;40.666;16.602;2024-02-04T12:55:27;5.03;;;2.88;;
65230;SDS011;51813;40.666;16.602;2024-02-04T13:00:29;4.50;;;2.35;;
65230;SDS011;51813;40.666;16.602;2024-02-04T13:02:56;4.10;;;2.58;;
65230;SDS011;51813;40.666;16.602;2024-02-04T13:05:23;4.30;;;2.88;;
65230;SDS011;51813;40.666;16.602;2024-02-04T13:07:52;3.65;;;2.67;;
65230;SDS011;51813;40.666;16.602;2024-02-04T13:10:22;4.32;;;2.70;;
65230;SDS011;51813;40.666;16.602;2024-02-04T13:12:58;4.93;;;2.45;;
65230;SDS011;51813;40.666;16.602;2024-02-04T13:15:26;5.78;;;2.85;;
65230;SDS011;51813;40.666;16.602;2024-02-04T13:17:52;3.72;;;2.47;;
65230;SDS011;51813;40.666;16.602;2024-02-04T13:20:17;3.47;;;2.47;;
65230;SDS011;51813;40.666;16.602;2024-02-04T13:22:43;4.30;;;2.72;;
65230;SDS011;51813;40.666;16.602;2024-02-04T13:25:09;5.10;;;2.83;;
65230;SDS011;51813;40.666;16.602;2024-02-04T13:27:35;4.53;;;3.10;;
65230;SDS011;51813;40.666;16.602;2024-02-04T13:30:01;4.00;;;2.67;;
65230;SDS011;51813;40.666;16.602;2024-02-04T13:32:26;5.22;;;3.05;;
65230;SDS011;51813;40.666;16.602;2024-02-04T13:34:52;4.28;;;2.53;;
65230;SDS011;51813;40.666;16.602;2024-02-04T13:37:18;3.67;;;2.55;;
65230;SDS011;51813;40.666;16.602;2024-02-04T13:39:43;3.30;;;2.50;;
65230;SDS011;51813;40.666;16.602;2024-02-04T13:42:09;4.45;;;2.80;;
65230;SDS011;51813;40.666;16.602;2024-02-04T13:44:35;3.65;;;2.47;;
65230;SDS011;51813;40.666;16.602;2024-02-04T13:47:01;3.90;;;2.63;;
65230;SDS011;51813;40.666;16.602;2024-02-04T13:49:26;3.67;;;2.25;;
65230;SDS011;51813;40.666;16.602;2024-02-04T13:51:52;4.30;;;2.70;;
65230;SDS011;51813;40.666;16.602;2024-02-04T13:54:18;4.82;;;2.60;;
65230;SDS011;51813;40.666;16.602;2024-02-04T13:56:44;3.85;;;2.53;;
65230;SDS011;51813;40.666;16.602;2024-02-04T13:59:11;3.50;;;2.25;;
65230;SDS011;51813;40.666;16.602;2024-02-04T14:01:36;3.95;;;2.53;;
65230;SDS011;51813;40.666;16.602;2024-02-04T14:04:02;4.75;;;2.47;;
65230;SDS011;51813;40.666;16.602;2024-02-04T14:06:28;3.33;;;2.20;;
65230;SDS011;51813;40.666;16.602;2024-02-04T14:08:53;4.68;;;2.60;;
65230;SDS011;51813;40.666;16.602;2024-02-04T14:11:19;4.10;;;2.80;;
65230;SDS011;51813;40.666;16.602;2024-02-04T14:13:45;3.97;;;2.53;;
65230;SDS011;51813;40.666;16.602;2024-02-04T14:16:11;3.20;;;2.15;;
65230;SDS011;51813;40.666;16.602;2024-02-04T14:18:36;4.00;;;2.10;;
65230;SDS011;51813;40.666;16.602;2024-02-04T14:21:03;4.50;;;2.60;;
65230;SDS011;51813;40.666;16.602;2024-02-04T14:23:31;3.13;;;2.00;;
65230;SDS011;51813;40.666;16.602;2024-02-04T14:25:57;4.00;;;2.53;;
65230;SDS011;51813;40.666;16.602;2024-02-04T14:28:23;3.78;;;2.50;;
65230;SDS011;51813;40.666;16.602;2024-02-04T14:30:48;4.03;;;2.50;;
65230;SDS011;51813;40.666;16.602;2024-02-04T14:33:14;3.90;;;2.45;;
65230;SDS011;51813;40.666;16.602;2024-02-04T14:35:40;3.90;;;2.50;;
65230;SDS011;51813;40.666;16.602;2024-02-04T14:38:05;3.70;;;2.50;;
65230;SDS011;51813;40.666;16.602;2024-02-04T14:40:32;4.10;;;2.47;;
65230;SDS011;51813;40.666;16.602;2024-02-04T14:42:57;3.72;;;2.40;;
65230;SDS011;51813;40.666;16.602;2024-02-04T14:45:23;3.92;;;2.45;;